Time;durP1;ratioP1;P1;durP2;ratioP2;P2;SDS_P1;SDS_P2;PMS_P1;PMS_P2;Temp;Humidity;BMP_temperature;BMP_pressure;BME280_temperature;BME280_humidity;BME280_pressure;Samples;Min_cycle;Max_cycle;Signal;HPM_P1;HPM_P2
2021/12/30 00:00:42;;;;;;;;;0.00;0.00;;;;;14.89;78.96;101032.63;4990924;28;45601;-53
2021/12/30 00:03:08;;;;;;;;;1.80;0.00;;;;;14.89;78.93;101043.69;4992530;28;45527;-55
2021/12/30 00:05:34;;;;;;;;;1.60;0.00;;;;;14.89;78.72;101046.44;4982176;28;45450;-52
2021/12/30 00:07:59;;;;;;;;;0.00;0.00;;;;;14.91;79.11;101041.50;4983016;28;45707;-56
2021/12/30 00:10:25;;;;;;;;;0.00;0.00;;;;;14.89;78.49;101035.38;5018603;28;45543;-50
2021/12/30 00:12:51;;;;;;;;;0.00;0.00;;;;;14.88;78.72;101041.97;5017907;28;45725;-53
2021/12/30 00:15:17;;;;;;;;;1.00;1.00;;;;;14.95;79.25;101050.19;5017567;28;45429;-50
2021/12/30 00:17:43;;;;;;;;;1.00;1.00;;;;;14.94;79.04;101046.56;4999526;28;45399;-53
2021/12/30 00:20:09;;;;;;;;;0.00;0.00;;;;;14.97;78.75;101050.78;5018459;28;45526;-53
2021/12/30 00:22:36;;;;;;;;;1.20;1.00;;;;;14.80;79.09;101022.94;5000324;28;45487;-51
2021/12/30 00:25:02;;;;;;;;;0.40;0.00;;;;;14.97;78.86;101046.09;5017573;28;45400;-53
2021/12/30 00:27:28;;;;;;;;;0.00;0.00;;;;;14.98;78.76;101045.03;5000297;28;45462;-53
2021/12/30 00:29:53;;;;;;;;;0.75;0.75;;;;;14.98;78.62;101045.03;5018338;28;45229;-48
2021/12/30 00:32:19;;;;;;;;;1.00;0.00;;;;;14.84;78.69;101024.19;5018021;28;45401;-55
2021/12/30 00:34:44;;;;;;;;;0.00;0.00;;;;;14.90;78.93;101028.78;5018322;28;45368;-53
2021/12/30 00:37:10;;;;;;;;;2.00;2.00;;;;;15.00;78.69;101051.16;4999279;28;45462;-54
2021/12/30 00:39:35;;;;;;;;;4.50;2.00;;;;;15.02;78.39;101056.47;5018410;28;45647;-53
2021/12/30 00:42:01;;;;;;;;;2.50;2.00;;;;;14.72;78.49;101008.34;5017092;28;45533;-51
2021/12/30 00:44:26;;;;;;;;;0.00;0.00;;;;;14.93;78.64;101050.41;5017530;28;45399;-55
2021/12/30 00:46:52;;;;;;;;;0.00;0.00;;;;;14.94;78.61;101054.84;5009723;28;45371;-50
2021/12/30 00:49:17;;;;;;;;;1.50;0.00;;;;;14.86;78.56;101038.59;4979542;28;45448;-55
2021/12/30 00:51:43;;;;;;;;;0.00;0.00;;;;;14.91;78.57;101050.63;5000730;28;46252;-53
2021/12/30 00:54:08;;;;;;;;;0.00;0.00;;;;;14.97;79.10;101070.97;4999580;28;45498;-51
2021/12/30 00:56:34;;;;;;;;;0.00;0.00;;;;;14.86;78.99;101052.41;5000395;28;45453;-49
2021/12/30 00:58:59;;;;;;;;;1.00;0.00;;;;;14.83;79.08;101059.25;5017460;28;45334;-56
2021/12/30 01:01:25;;;;;;;;;0.00;0.00;;;;;14.81;78.64;101057.78;5017655;28;46251;-50
2021/12/30 01:03:51;;;;;;;;;0.00;0.00;;;;;14.95;79.06;101075.06;5018072;28;45347;-50
2021/12/30 01:06:17;;;;;;;;;1.00;1.00;;;;;14.94;78.98;101092.72;5017979;28;45331;-56
2021/12/30 01:08:42;;;;;;;;;2.00;0.00;;;;;14.91;79.13;101091.25;5000360;28;45731;-54
2021/12/30 01:11:08;;;;;;;;;1.00;1.00;;;;;14.93;79.35;101099.31;4999913;28;46080;-52
2021/12/30 01:13:39;;;;;;;;;0.00;0.00;;;;;14.94;79.48;101092.72;5017777;28;45437;-52
2021/12/30 01:16:06;;;;;;;;;0.00;0.00;;;;;14.93;79.28;101089.09;4999870;28;45406;-49
2021/12/30 01:18:42;;;;;;;;;0.60;0.60;;;;;14.92;79.16;101090.19;5017996;28;45671;-52
2021/12/30 01:21:09;;;;;;;;;0.00;0.00;;;;;14.88;79.49;101080.66;4985079;28;46504;-55
2021/12/30 01:23:35;;;;;;;;;0.80;0.80;;;;;14.97;78.85;101108.81;5017378;28;45355;-51
2021/12/30 01:26:01;;;;;;;;;1.00;1.00;;;;;14.94;79.36;101112.88;5017582;28;45370;-51
2021/12/30 01:28:27;;;;;;;;;1.00;1.00;;;;;14.95;79.59;101120.13;5000285;28;45342;-49
2021/12/30 01:30:52;;;;;;;;;2.40;0.20;;;;;14.91;79.40;101130.78;5017226;28;46160;-55
2021/12/30 01:33:18;;;;;;;;;1.00;1.00;;;;;14.92;79.36;101126.09;5017142;28;45248;-53
2021/12/30 01:35:43;;;;;;;;;0.00;0.00;;;;;14.88;79.53;101128.50;4999605;28;45689;-49
2021/12/30 01:38:12;;;;;;;;;1.00;1.00;;;;;14.91;79.66;101124.41;5017503;28;45635;-51
2021/12/30 01:40:38;;;;;;;;;0.60;0.00;;;;;14.89;79.55;101130.16;5016821;28;46994;-55
2021/12/30 01:43:04;;;;;;;;;0.00;0.00;;;;;14.90;79.87;101131.03;5017286;28;45382;-51
2021/12/30 01:45:30;;;;;;;;;0.00;0.00;;;;;14.86;79.92;101136.19;5017045;28;45327;-53
2021/12/30 01:47:57;;;;;;;;;1.00;1.00;;;;;14.88;79.72;101141.44;5017176;28;45863;-51
2021/12/30 01:50:22;;;;;;;;;0.00;0.00;;;;;14.89;79.99;101148.69;5016492;28;45960;-53
2021/12/30 01:52:48;;;;;;;;;0.75;0.00;;;;;14.86;80.45;101141.69;5000900;28;45448;-52
2021/12/30 01:55:14;;;;;;;;;1.75;0.50;;;;;14.86;80.43;101136.19;4997740;28;45344;-51
2021/12/30 01:57:39;;;;;;;;;0.60;0.60;;;;;14.74;80.47;101122.25;4997242;28;45561;-48
2021/12/30 02:00:07;;;;;;;;;0.50;0.50;;;;;14.91;80.39;101144.59;4990623;28;46884;-54
2021/12/30 02:02:32;;;;;;;;;1.80;0.80;;;;;14.94;79.82;101151.56;5012993;28;45305;-53
2021/12/30 02:04:58;;;;;;;;;0.00;0.00;;;;;14.94;79.98;101148.81;5016307;28;45339;-49
2021/12/30 02:07:23;;;;;;;;;1.00;1.00;;;;;14.93;80.03;101151.84;5013720;28;45508;-51
2021/12/30 02:09:50;;;;;;;;;0.00;0.00;;;;;14.92;79.92;101148.22;5016888;28;45876;-55
2021/12/30 02:12:15;;;;;;;;;1.00;1.00;;;;;14.85;79.89;101139.16;5016650;28;45445;-50
2021/12/30 02:14:41;;;;;;;;;2.25;2.25;;;;;14.92;80.03;101156.50;4999222;28;45414;-51
2021/12/30 02:17:06;;;;;;;;;1.75;1.75;;;;;14.74;80.44;101130.56;5017188;28;45386;-53
2021/12/30 02:19:32;;;;;;;;;1.75;1.50;;;;;14.91;80.27;101154.81;5016637;28;45857;-52
2021/12/30 02:21:57;;;;;;;;;2.25;1.25;;;;;14.94;80.10;101162.63;5016558;28;45335;-50
2021/12/30 02:24:23;;;;;;;;;4.25;3.00;;;;;14.94;80.04;101156.28;5016694;28;45367;-52
2021/12/30 02:26:48;;;;;;;;;0.00;0.00;;;;;14.92;80.31;101159.25;5015714;28;45286;-52
2021/12/30 02:29:14;;;;;;;;;1.00;1.00;;;;;14.93;79.75;101166.47;5016575;28;45594;-51
2021/12/30 02:31:40;;;;;;;;;1.25;0.50;;;;;14.91;79.99;101155.66;5016773;28;45264;-49
2021/12/30 02:34:05;;;;;;;;;1.25;1.25;;;;;14.98;79.37;101168.53;4999289;28;45353;-51
2021/12/30 02:36:32;;;;;;;;;2.00;1.00;;;;;15.00;79.34;101172.75;4998910;28;45969;-52
2021/12/30 02:38:59;;;;;;;;;0.60;0.40;;;;;14.81;79.49;101135.16;5016273;28;45505;-49
2021/12/30 02:41:26;;;;;;;;;0.20;0.20;;;;;15.00;79.30;101167.25;5016544;28;45563;-50
2021/12/30 02:43:52;;;;;;;;;0.00;0.00;;;;;15.02;79.62;101176.16;5016258;28;45362;-51
2021/12/30 02:46:23;;;;;;;;;1.00;1.00;;;;;15.04;79.60;101189.72;4998718;28;45355;-52
2021/12/30 02:48:52;;;;;;;;;1.00;0.00;;;;;15.04;79.57;101192.50;5016011;28;45950;-52
2021/12/30 02:51:18;;;;;;;;;0.40;0.40;;;;;15.00;79.67;101185.75;5015935;28;45319;-50
2021/12/30 02:53:43;;;;;;;;;1.00;0.00;;;;;15.03;79.75;101183.38;4980419;28;45335;-54
2021/12/30 02:56:09;;;;;;;;;1.00;0.00;;;;;15.06;79.27;101195.91;4996396;28;45320;-54
2021/12/30 02:58:34;;;;;;;;;0.75;0.75;;;;;15.04;79.22;101193.34;4995618;28;45667;-49
2021/12/30 03:01:05;;;;;;;;;1.00;1.00;;;;;15.02;79.23;101189.13;4978224;28;45329;-53
2021/12/30 03:03:31;;;;;;;;;0.00;0.00;;;;;14.87;79.58;101175.69;4972340;28;45433;-54
2021/12/30 03:05:58;;;;;;;;;1.00;0.00;;;;;14.83;78.96;101168.94;4975284;28;45454;-52
2021/12/30 03:08:23;;;;;;;;;0.20;0.20;;;;;14.95;78.92;101182.84;4971855;28;46000;-49
2021/12/30 03:10:50;;;;;;;;;0.00;0.00;;;;;14.97;79.05;101188.97;4975408;28;45356;-51
2021/12/30 03:13:18;;;;;;;;;0.80;0.80;;;;;14.98;78.87;101187.88;4957040;28;45394;-51
2021/12/30 03:15:46;;;;;;;;;0.00;0.00;;;;;15.00;79.04;101186.59;4975261;28;45360;-52
2021/12/30 03:18:11;;;;;;;;;0.40;0.00;;;;;14.99;79.13;101182.13;4975783;28;46306;-50
2021/12/30 03:20:36;;;;;;;;;0.00;0.00;;;;;15.02;78.74;101189.13;4975566;28;45423;-49
2021/12/30 03:23:02;;;;;;;;;0.00;0.00;;;;;15.00;79.12;101188.53;4956066;28;45399;-54
2021/12/30 03:25:28;;;;;;;;;0.00;0.00;;;;;15.02;78.23;101183.59;4958835;28;45518;-55
2021/12/30 03:27:54;;;;;;;;;0.00;0.00;;;;;14.86;78.41;101158.28;4975771;28;46701;-49
2021/12/30 03:30:19;;;;;;;;;0.00;0.00;;;;;15.06;78.36;101195.03;4958728;28;45431;-51
2021/12/30 03:32:45;;;;;;;;;2.00;0.00;;;;;14.90;78.84;101172.47;4976021;28;45760;-51
2021/12/30 03:35:10;;;;;;;;;0.00;0.00;;;;;15.03;78.82;101199.97;4976390;28;46136;-53
2021/12/30 03:37:36;;;;;;;;;1.00;0.50;;;;;15.06;78.58;101200.56;4978037;28;46583;-49
2021/12/30 03:40:04;;;;;;;;;0.00;0.00;;;;;15.03;78.21;101196.34;4982683;28;45486;-53
2021/12/30 03:42:29;;;;;;;;;0.60;0.00;;;;;14.92;78.04;101175.84;4964195;28;45846;-53
2021/12/30 03:44:57;;;;;;;;;0.00;0.00;;;;;15.07;78.41;101193.97;4982452;28;45483;-47
2021/12/30 03:47:23;;;;;;;;;0.00;0.00;;;;;15.08;77.78;101193.72;4982040;28;45947;-47
2021/12/30 03:49:48;;;;;;;;;0.20;0.20;;;;;15.06;78.38;101195.03;4982169;28;45664;-52
2021/12/30 03:52:19;;;;;;;;;0.00;0.00;;;;;15.09;77.68;101195.41;4971010;28;45321;-55
2021/12/30 03:54:45;;;;;;;;;0.00;0.00;;;;;15.00;77.67;101191.28;5022224;28;45370;-51
2021/12/30 03:57:10;;;;;;;;;0.00;0.00;;;;;15.04;78.09;101189.72;5021658;28;45495;-51
2021/12/30 03:59:36;;;;;;;;;0.00;0.00;;;;;15.00;78.24;101181.06;5003937;28;45466;-53
2021/12/30 04:02:01;;;;;;;;;0.00;0.00;;;;;14.96;77.70;101182.63;5011928;28;45368;-52
2021/12/30 04:04:27;;;;;;;;;0.00;0.00;;;;;14.97;77.88;101176.00;4999775;28;45381;-52
2021/12/30 04:06:52;;;;;;;;;1.00;1.00;;;;;15.00;78.30;101181.06;4999350;28;46707;-50
2021/12/30 04:09:18;;;;;;;;;0.00;0.00;;;;;15.06;77.98;101181.22;5001746;28;45737;-50
2021/12/30 04:11:44;;;;;;;;;0.00;0.00;;;;;15.04;77.76;101175.91;5002002;28;45423;-53
2021/12/30 04:14:09;;;;;;;;;3.00;1.00;;;;;15.04;77.87;101185.06;4984115;28;45355;-51
2021/12/30 04:16:35;;;;;;;;;1.00;1.00;;;;;15.03;77.54;101188.91;5001685;28;45914;-50
2021/12/30 04:19:01;;;;;;;;;1.00;0.00;;;;;15.04;78.04;101186.97;5001457;28;45364;-54
2021/12/30 04:21:26;;;;;;;;;0.40;0.40;;;;;15.07;78.02;101182.91;5001694;28;45491;-54
2021/12/30 04:23:52;;;;;;;;;0.00;0.00;;;;;15.10;77.35;101186.03;5001243;28;45319;-50
2021/12/30 04:26:18;;;;;;;;;1.00;0.00;;;;;15.07;77.09;101177.38;4984052;28;46508;-49
2021/12/30 04:28:44;;;;;;;;;2.00;0.00;;;;;15.03;77.26;101166.78;4983802;28;45584;-54
2021/12/30 04:31:10;;;;;;;;;2.00;0.40;;;;;15.00;77.78;101158.13;5001547;28;45395;-50
2021/12/30 04:33:35;;;;;;;;;0.00;0.00;;;;;15.18;77.50;101182.13;4984151;28;45572;-49
2021/12/30 04:36:01;;;;;;;;;0.00;0.00;;;;;15.20;77.46;101179.97;5001504;28;45799;-50
2021/12/30 04:38:27;;;;;;;;;0.00;0.00;;;;;15.18;76.92;101183.00;5001326;28;45464;-50
2021/12/30 04:40:53;;;;;;;;;0.60;0.00;;;;;14.99;77.09;101148.16;5001437;28;45387;-49
2021/12/30 04:43:19;;;;;;;;;0.00;0.00;;;;;15.17;77.31;101177.69;5001521;28;45455;-49
2021/12/30 04:45:46;;;;;;;;;0.25;0.25;;;;;15.14;77.07;101183.66;5001016;28;46245;-52
2021/12/30 04:48:12;;;;;;;;;0.80;0.00;;;;;15.10;77.25;101179.69;4984057;28;45366;-53
2021/12/30 04:50:37;;;;;;;;;0.00;0.00;;;;;15.17;77.15;101199.81;4997739;28;45427;-50
2021/12/30 04:53:03;;;;;;;;;1.00;1.00;;;;;15.11;76.96;101186.91;4998536;28;45347;-54
2021/12/30 04:55:28;;;;;;;;;0.00;0.00;;;;;15.09;77.00;101200.94;4980582;28;46377;-52
2021/12/30 04:57:54;;;;;;;;;1.00;1.00;;;;;15.04;77.01;101198.88;4997978;28;45359;-50
2021/12/30 05:00:19;;;;;;;;;0.00;0.00;;;;;15.06;76.97;101206.09;4998364;28;45461;-49
2021/12/30 05:03:08;;;;;;;;;0.00;0.00;;;;;15.04;77.41;101209.09;4998474;28;45841;-51
2021/12/30 05:05:39;;;;;;;;;0.80;0.80;;;;;15.01;77.15;101212.31;4998009;28;45438;-51
2021/12/30 05:08:05;;;;;;;;;0.00;0.00;;;;;14.70;77.13;101172.66;4998133;28;45430;-53
2021/12/30 05:10:30;;;;;;;;;0.25;0.00;;;;;14.77;77.17;101198.31;4998048;28;45422;-48
2021/12/30 05:12:56;;;;;;;;;0.25;0.00;;;;;14.93;77.12;101240.28;4980572;28;45385;-51
2021/12/30 05:15:21;;;;;;;;;0.50;0.00;;;;;14.91;77.15;101243.25;4997824;28;46440;-50
2021/12/30 05:17:48;;;;;;;;;2.00;0.50;;;;;14.89;77.22;101240.72;4998209;28;45299;-49
2021/12/30 05:20:13;;;;;;;;;0.40;0.40;;;;;14.94;77.32;101244.72;4998047;28;45368;-48
2021/12/30 05:22:40;;;;;;;;;0.00;0.00;;;;;14.82;77.36;101225.25;4998311;28;45524;-51
2021/12/30 05:25:06;;;;;;;;;0.40;0.40;;;;;14.93;77.51;101238.34;4996303;28;45927;-53
2021/12/30 05:27:32;;;;;;;;;0.00;0.00;;;;;14.95;77.32;101235.34;4997310;28;45292;-51
2021/12/30 05:29:57;;;;;;;;;1.50;0.00;;;;;14.74;77.42;101210.69;4997655;28;45375;-53
2021/12/30 05:32:23;;;;;;;;;3.50;1.00;;;;;14.87;77.13;101228.19;4998107;28;45533;-50
2021/12/30 05:34:48;;;;;;;;;1.25;1.00;;;;;14.87;77.57;101234.56;4997529;28;45401;-51
2021/12/30 05:37:13;;;;;;;;;0.25;0.00;;;;;14.86;77.33;101235.66;4997410;28;45462;-54
2021/12/30 05:39:41;;;;;;;;;0.00;0.00;;;;;14.63;77.69;101226.06;4997869;28;45354;-51
2021/12/30 05:42:07;;;;;;;;;3.20;0.80;;;;;14.82;77.80;101267.56;4997813;28;45422;-49
2021/12/30 05:44:32;;;;;;;;;1.50;1.00;;;;;14.80;78.09;101274.41;4997114;28;45463;-50
2021/12/30 05:46:58;;;;;;;;;0.00;0.00;;;;;14.76;77.79;101263.81;4997212;28;45396;-50
2021/12/30 05:49:23;;;;;;;;;1.50;0.50;;;;;14.57;77.42;101243.53;4964042;28;45632;-48
2021/12/30 05:51:49;;;;;;;;;1.00;1.00;;;;;14.69;77.86;101265.75;4994479;28;45799;-52
2021/12/30 05:54:15;;;;;;;;;1.25;1.25;;;;;14.60;77.64;101254.16;5011263;28;45959;-52
2021/12/30 05:56:40;;;;;;;;;3.00;1.00;;;;;14.67;78.25;101270.66;4999421;28;45430;-50
2021/12/30 05:59:06;;;;;;;;;0.75;0.75;;;;;14.65;78.21;101272.81;4999224;28;45388;-50
2021/12/30 06:01:31;;;;;;;;;1.00;1.00;;;;;14.62;77.70;101276.03;5016434;28;45279;-52
2021/12/30 06:03:57;;;;;;;;;1.25;1.25;;;;;14.60;78.22;101280.91;4998778;28;45485;-49
2021/12/30 06:06:24;;;;;;;;;0.50;0.50;;;;;14.39;77.68;101255.38;5016838;28;45316;-49
2021/12/30 06:08:50;;;;;;;;;1.00;1.00;;;;;14.44;78.10;101261.09;4998670;28;45426;-52
2021/12/30 06:11:16;;;;;;;;;1.00;1.00;;;;;14.52;78.11;101282.06;4999614;28;45408;-55
2021/12/30 06:13:42;;;;;;;;;1.50;0.25;;;;;14.58;78.00;101289.41;5016419;28;46494;-50
2021/12/30 06:16:07;;;;;;;;;1.00;1.00;;;;;14.53;77.38;101285.66;5016452;28;45372;-51
2021/12/30 06:18:32;;;;;;;;;2.50;1.00;;;;;14.46;77.52;101281.03;5016505;28;45414;-51
2021/12/30 06:20:58;;;;;;;;;2.00;1.00;;;;;14.56;77.55;101299.03;5016768;28;45352;-53
2021/12/30 06:23:24;;;;;;;;;2.75;1.25;;;;;14.42;77.42;101276.19;5016384;28;46390;-55
2021/12/30 06:25:49;;;;;;;;;3.50;2.50;;;;;14.53;77.55;101297.56;5016027;28;45304;-50
2021/12/30 06:28:15;;;;;;;;;2.00;1.00;;;;;14.45;77.77;101287.63;5016609;28;45339;-51
2021/12/30 06:30:41;;;;;;;;;3.80;1.60;;;;;14.49;77.99;101288.88;5016411;28;45378;-49
2021/12/30 06:33:07;;;;;;;;;1.00;1.00;;;;;14.46;77.84;101283.78;4998802;28;47350;-50
2021/12/30 06:35:34;;;;;;;;;3.25;1.00;;;;;14.46;77.44;101286.56;4998066;28;45440;-54
2021/12/30 06:38:03;;;;;;;;;1.80;1.80;;;;;14.40;78.34;101290.22;5016133;28;45378;-50
2021/12/30 06:40:28;;;;;;;;;2.00;1.40;;;;;14.39;77.87;101285.75;4998569;28;45857;-52
2021/12/30 06:42:54;;;;;;;;;3.50;3.50;;;;;14.44;77.81;101299.75;4998281;28;46458;-55
2021/12/30 06:45:19;;;;;;;;;3.50;1.25;;;;;14.43;77.42;101308.25;5016174;28;45258;-50
2021/12/30 06:47:45;;;;;;;;;2.00;2.00;;;;;14.35;77.49;101293.66;5016537;28;45422;-50
2021/12/30 06:50:13;;;;;;;;;2.20;2.00;;;;;14.39;77.66;101302.34;4998577;28;45661;-51
2021/12/30 06:52:39;;;;;;;;;0.80;0.80;;;;;14.35;78.01;101296.41;5014823;28;45811;-50
2021/12/30 06:55:05;;;;;;;;;1.00;1.00;;;;;14.35;78.20;101310.22;4978537;28;45578;-56
2021/12/30 06:57:30;;;;;;;;;1.00;1.00;;;;;14.20;77.40;101277.41;4996223;28;45504;-49
2021/12/30 06:59:56;;;;;;;;;3.00;1.25;;;;;14.30;77.91;101312.78;4996389;28;45548;-49
2021/12/30 07:02:21;;;;;;;;;2.50;2.50;;;;;14.29;77.26;101318.56;4995859;28;45473;-52
2021/12/30 07:04:47;;;;;;;;;2.00;2.00;;;;;14.22;77.50;101304.78;4978287;28;45410;-48
2021/12/30 07:07:12;;;;;;;;;3.25;2.75;;;;;14.25;77.48;101314.53;4996116;28;45397;-49
2021/12/30 07:09:38;;;;;;;;;3.00;1.75;;;;;14.23;77.71;101317.53;4978527;28;45395;-52
2021/12/30 07:12:04;;;;;;;;;4.00;2.00;;;;;14.23;77.42;101318.38;4977754;28;45883;-50
2021/12/30 07:14:29;;;;;;;;;1.00;1.00;;;;;14.17;77.41;101310.97;4995746;28;45283;-49
2021/12/30 07:16:55;;;;;;;;;5.00;2.00;;;;;14.19;77.67;101325.41;4996037;28;45420;-54
2021/12/30 07:19:20;;;;;;;;;3.75;3.00;;;;;13.88;77.69;101282.91;4978587;28;45221;-51
2021/12/30 07:21:46;;;;;;;;;3.00;1.25;;;;;14.16;77.64;101328.63;4995850;28;45638;-49
2021/12/30 07:24:12;;;;;;;;;3.25;3.25;;;;;14.15;77.64;101337.13;4995638;28;45497;-51
2021/12/30 07:26:37;;;;;;;;;2.00;2.00;;;;;13.85;77.33;101288.88;4996002;28;45467;-50
2021/12/30 07:29:03;;;;;;;;;4.75;3.25;;;;;14.18;77.46;101355.97;4995689;28;45278;-50
2021/12/30 07:31:29;;;;;;;;;3.60;3.60;;;;;14.15;77.43;101345.41;4995388;28;46448;-51
2021/12/30 07:33:54;;;;;;;;;3.50;2.00;;;;;14.10;77.21;101327.56;4995448;28;45470;-54
2021/12/30 07:36:20;;;;;;;;;4.00;2.25;;;;;14.16;77.17;101345.19;4995071;28;45534;-49
2021/12/30 07:38:45;;;;;;;;;1.75;1.25;;;;;14.18;77.08;101345.81;5015796;28;45457;-51
2021/12/30 07:41:10;;;;;;;;;3.25;2.50;;;;;14.00;76.78;101307.91;5014670;28;46069;-56
2021/12/30 07:43:36;;;;;;;;;3.00;2.00;;;;;14.21;76.97;101347.28;5015370;28;46016;-48
2021/12/30 07:46:02;;;;;;;;;6.25;3.00;;;;;14.20;76.46;101337.31;4997466;28;45379;-49
2021/12/30 07:48:27;;;;;;;;;5.75;4.50;;;;;14.05;76.89;101304.47;5015736;28;45464;-51
2021/12/30 07:50:53;;;;;;;;;4.50;3.50;;;;;14.24;76.16;101344.06;5015347;28;45510;-53
2021/12/30 07:53:20;;;;;;;;;4.00;2.50;;;;;14.19;76.09;101330.09;5010407;28;45472;-52
2021/12/30 07:55:45;;;;;;;;;4.00;3.20;;;;;14.21;76.62;101344.50;4978400;28;45269;-49
2021/12/30 07:58:11;;;;;;;;;3.50;2.00;;;;;14.26;75.77;101354.88;4978525;28;45357;-50
2021/12/30 08:00:37;;;;;;;;;4.75;2.75;;;;;14.25;76.22;101353.19;4995267;28;45402;-49
2021/12/30 08:03:02;;;;;;;;;6.00;3.00;;;;;14.21;76.34;101366.59;4995510;28;45417;-51
2021/12/30 08:05:28;;;;;;;;;3.00;3.00;;;;;14.25;75.65;101378.88;4995370;28;45411;-51
2021/12/30 08:07:54;;;;;;;;;3.60;2.00;;;;;14.09;76.23;101356.25;4996036;28;45400;-48
2021/12/30 08:10:19;;;;;;;;;10.00;4.00;;;;;14.13;75.65;101367.69;4995403;28;46114;-50
2021/12/30 08:12:46;;;;;;;;;2.25;2.25;;;;;14.27;76.07;101385.03;4995513;28;45315;-51
2021/12/30 08:15:12;;;;;;;;;5.00;2.60;;;;;14.30;76.01;101392.03;4977827;28;45416;-49
2021/12/30 08:17:37;;;;;;;;;4.80;2.60;;;;;14.37;75.49;101401.97;4995526;28;45507;-49
2021/12/30 08:20:04;;;;;;;;;3.00;3.00;;;;;14.40;75.54;101408.13;4995331;28;46434;-49
2021/12/30 08:22:29;;;;;;;;;5.80;4.00;;;;;14.31;75.36;101388.22;4993218;28;45249;-51
2021/12/30 08:24:55;;;;;;;;;4.25;3.00;;;;;14.41;75.36;101407.88;4974647;28;45478;-49
2021/12/30 08:27:20;;;;;;;;;1.50;1.50;;;;;14.41;75.30;101401.53;4976202;28;45546;-55
2021/12/30 08:29:46;;;;;;;;;3.25;3.00;;;;;14.44;74.54;101406.59;4953120;28;46318;-55
2021/12/30 08:32:12;;;;;;;;;3.25;3.25;;;;;14.43;75.21;101413.19;4992687;28;45751;-53
2021/12/30 08:34:41;;;;;;;;;6.40;3.00;;;;;14.43;75.28;101422.34;4957494;28;45796;-54
2021/12/30 08:37:07;;;;;;;;;4.00;2.00;;;;;14.45;74.68;101430.38;4989345;28;45533;-56
2021/12/30 08:39:35;;;;;;;;;5.50;3.00;;;;;14.42;74.67;101428.94;4974819;28;46026;-52
2021/12/30 08:42:01;;;;;;;;;3.00;3.00;;;;;14.42;75.05;101444.66;4959699;28;45773;-56
2021/12/30 08:44:27;;;;;;;;;2.25;2.25;;;;;14.44;74.74;101435.06;4993699;28;46070;-48
2021/12/30 08:46:52;;;;;;;;;3.00;2.00;;;;;14.46;74.95;101437.63;4998730;28;45534;-52
2021/12/30 08:49:18;;;;;;;;;5.75;3.00;;;;;14.46;74.84;101441.22;5012691;28;45518;-54
2021/12/30 08:51:43;;;;;;;;;5.00;3.50;;;;;14.44;74.56;101436.97;5013525;28;45462;-51
2021/12/30 08:54:09;;;;;;;;;6.00;4.25;;;;;14.48;74.33;101435.47;4973320;28;45502;-55
2021/12/30 08:56:34;;;;;;;;;8.25;5.75;;;;;14.47;75.08;101436.56;4974026;28;45573;-52
2021/12/30 08:59:00;;;;;;;;;5.75;4.00;;;;;14.50;74.53;101442.47;4955753;28;46320;-51
2021/12/30 09:01:26;;;;;;;;;2.75;2.75;;;;;14.34;74.54;101405.19;4973367;28;45821;-54
2021/12/30 09:03:52;;;;;;;;;4.20;3.00;;;;;14.49;74.28;101434.41;4973748;28;45543;-56
2021/12/30 09:06:17;;;;;;;;;4.00;2.00;;;;;14.41;74.88;101416.16;4973324;28;45482;-55
2021/12/30 09:08:43;;;;;;;;;8.00;4.50;;;;;14.34;74.33;101410.69;4972995;28;46488;-53
2021/12/30 09:11:08;;;;;;;;;4.00;2.00;;;;;14.53;75.20;101441.19;4956015;28;45574;-53
2021/12/30 09:13:34;;;;;;;;;5.25;4.25;;;;;14.57;74.47;101444.34;4973638;28;45434;-55
2021/12/30 09:16:01;;;;;;;;;6.50;4.00;;;;;14.57;74.49;101449.88;4955988;28;45378;-53
2021/12/30 09:18:27;;;;;;;;;4.40;2.60;;;;;14.56;74.50;101443.50;4955286;28;45440;-54
2021/12/30 09:20:52;;;;;;;;;3.50;2.50;;;;;14.62;74.66;101448.13;5005186;28;45533;-53
2021/12/30 09:23:18;;;;;;;;;5.50;3.75;;;;;14.56;75.03;101445.44;5012720;28;45399;-53
2021/12/30 09:25:43;;;;;;;;;3.75;3.75;;;;;14.64;74.35;101462.56;4985818;28;45907;-55
2021/12/30 09:28:12;;;;;;;;;4.75;3.00;;;;;14.67;74.54;101453.00;5000908;28;47125;-52
2021/12/30 09:30:37;;;;;;;;;4.80;4.20;;;;;14.70;74.15;101458.09;4973329;28;45477;-52
2021/12/30 09:33:05;;;;;;;;;7.25;4.00;;;;;14.72;74.34;101455.94;4973158;28;45479;-53
2021/12/30 09:35:31;;;;;;;;;6.20;3.80;;;;;14.72;74.13;101466.13;4942746;28;47082;-54
2021/12/30 09:37:56;;;;;;;;;5.60;2.60;;;;;14.74;74.18;101464.03;5007136;28;46889;-57
2021/12/30 09:40:23;;;;;;;;;5.25;4.75;;;;;14.79;73.96;101471.66;5011977;28;45437;-52
2021/12/30 09:42:52;;;;;;;;;5.40;3.60;;;;;14.62;73.94;101437.09;4989794;28;45385;-50
2021/12/30 09:45:18;;;;;;;;;4.00;2.00;;;;;14.88;73.80;101475.84;4956479;28;45761;-54
2021/12/30 09:47:50;;;;;;;;;7.25;4.00;;;;;14.85;74.19;101460.56;4972357;28;45668;-56
2021/12/30 09:50:16;;;;;;;;;5.60;4.40;;;;;14.89;73.94;101472.84;4972616;28;45475;-55
2021/12/30 09:52:42;;;;;;;;;4.00;3.20;;;;;14.88;73.52;101462.88;4973249;28;45996;-56
2021/12/30 09:55:07;;;;;;;;;6.00;3.00;;;;;14.80;73.91;101440.19;4974547;28;45427;-53
2021/12/30 09:57:33;;;;;;;;;5.00;2.50;;;;;14.90;73.49;101473.72;4992599;28;46138;-54
2021/12/30 09:59:58;;;;;;;;;8.00;3.50;;;;;14.98;73.14;101475.34;4974505;28;45463;-49
2021/12/30 10:02:24;;;;;;;;;3.00;3.00;;;;;15.01;73.27;101472.97;4974184;28;45415;-54
2021/12/30 10:05:03;;;;;;;;;5.00;3.00;;;;;14.88;73.13;101459.25;4992142;28;45448;-51
2021/12/30 10:07:28;;;;;;;;;4.20;1.60;;;;;14.92;72.80;101460.50;4977500;28;45672;-51
2021/12/30 10:10:00;;;;;;;;;2.75;2.00;;;;;15.13;73.25;101488.84;4972130;28;45483;-49
2021/12/30 10:12:32;;;;;;;;;10.00;4.40;;;;;15.13;72.88;101494.38;4955941;28;45407;-53
2021/12/30 10:14:58;;;;;;;;;4.20;3.80;;;;;15.14;73.35;101485.88;4973071;28;45820;-52
2021/12/30 10:17:25;;;;;;;;;4.75;3.50;;;;;15.17;73.05;101490.09;4972244;28;46406;-51
2021/12/30 10:19:52;;;;;;;;;6.00;4.80;;;;;15.13;73.17;101478.66;4968499;28;45432;-54
2021/12/30 10:22:21;;;;;;;;;4.00;4.00;;;;;15.17;73.19;101490.09;4994251;28;45438;-51
2021/12/30 10:24:47;;;;;;;;;2.20;1.20;;;;;15.02;72.58;101460.03;4992797;28;45567;-54
2021/12/30 10:27:29;;;;;;;;;4.25;2.25;;;;;15.17;73.22;101476.28;5011477;28;46147;-53
2021/12/30 10:29:55;;;;;;;;;6.00;3.00;;;;;15.17;73.21;101479.03;5011159;28;48426;-52
2021/12/30 10:32:22;;;;;;;;;4.25;4.00;;;;;15.24;73.00;101490.03;4974315;28;45421;-54
2021/12/30 10:35:10;;;;;;;;;5.00;4.00;;;;;15.28;72.93;101492.16;4960684;28;45475;-54
2021/12/30 10:37:36;;;;;;;;;6.20;2.60;;;;;15.31;72.75;101493.59;4991311;28;46748;-59
2021/12/30 10:40:03;;;;;;;;;3.60;3.40;;;;;15.13;72.84;101462.06;4991649;28;45907;-54
2021/12/30 10:42:31;;;;;;;;;3.80;3.80;;;;;15.23;72.61;101483.69;4990496;28;45829;-49
2021/12/30 10:44:59;;;;;;;;;2.60;2.60;;;;;15.19;72.44;101482.44;4991513;28;45535;-53
2021/12/30 10:47:26;;;;;;;;;2.20;2.20;;;;;15.34;72.44;101495.94;4990304;28;47056;-51
2021/12/30 10:50:01;;;;;;;;;4.00;3.00;;;;;15.23;72.26;101447.72;4991807;28;45441;-53
2021/12/30 10:52:27;;;;;;;;;3.20;1.60;;;;;15.46;72.50;101473.91;4991001;28;45763;-51
2021/12/30 10:54:52;;;;;;;;;6.50;4.00;;;;;15.43;72.26;101463.31;4998821;28;45696;-50
2021/12/30 10:57:18;;;;;;;;;3.75;2.00;;;;;15.36;72.03;101432.91;4973551;28;46299;-56
2021/12/30 10:59:44;;;;;;;;;4.75;2.00;;;;;15.57;71.89;101456.56;4973446;28;45445;-52
2021/12/30 11:02:21;;;;;;;;;4.60;4.60;;;;;15.64;71.79;101456.47;4991700;28;45892;-55
2021/12/30 11:05:00;;;;;;;;;3.40;3.40;;;;;15.57;71.56;101456.56;4991388;28;45669;-54
2021/12/30 11:07:46;;;;;;;;;7.00;4.00;;;;;15.52;71.72;101455.56;4967812;28;46550;-54
2021/12/30 11:10:12;;;;;;;;;8.20;4.40;;;;;15.44;71.52;101460.28;4971735;28;45987;-55
2021/12/30 11:12:41;;;;;;;;;2.60;2.60;;;;;15.44;72.46;101460.28;4971811;28;45858;-60
2021/12/30 11:15:27;;;;;;;;;4.40;2.20;;;;;15.44;72.16;101465.00;4971326;28;45813;-55
2021/12/30 11:18:12;;;;;;;;;4.20;3.00;;;;;15.42;72.24;101469.91;4993661;28;47646;-52
2021/12/30 11:20:45;;;;;;;;;3.00;3.00;;;;;15.49;72.48;101467.94;5009021;28;45471;-57